Latest Weather Observations for Gatton

IDQ60801

Issued at 3:02 am EST Saturday 1 August 2015 (issued every 30 minutes, with the page automatically refreshed every 10 minutes)

About weather observations | Map of weather stations | Latest weather observations for QLD | Other Formats
Station Details ID: 040082 Name: UNIVERSITY OF QUEENSLAND GATTON Lat: -27.54 Lon: 152.34 Height: 89.0 m
Data from the previous 72 hours. | See also: Recent months at Gatton
Date/Time
EST
Temp
°C
App
Temp
°C
Dew
Point
Rel
Hum
%
Delta-T
°C
Wind Press
QNH
hPa
Press
MSL
hPa
Rain
since 9 am
mm
Dir
 
Spd
km/h
Gust
km/h
Spd
kts
Gust
kts
01/03:00am 6.1 2.5 2.9 80 1.3 W 11 13 6 7 - - 0.0
01/02:30am 6.1 2.8 2.7 79 1.4 W 9 11 5 6 - - 0.0
01/02:00am 5.7 2.4 2.4 79 1.4 W 9 11 5 6 - - 0.0
01/01:30am 5.6 2.8 2.3 79 1.3 SW 6 9 3 5 - - 0.0
01/01:00am 6.4 3.7 2.9 78 1.5 SSW 6 9 3 5 - - 0.0
01/12:30am 7.4 3.5 3.6 77 1.6 W 13 15 7 8 - - 0.0
01/12:00am 8.0 4.2 3.7 74 1.9 W 13 17 7 9 - - 0.0
 
Date/Time
EST
Temp
°C
App
Temp
°C
Dew
Point
Rel
Hum
%
Delta-T
°C
Wind Press
QNH
hPa
Press
MSL
hPa
Rain
since 9 am
mm
Dir
 
Spd
km/h
Gust
km/h
Spd
kts
Gust
kts
31/11:30pm 8.8 4.8 2.8 66 2.6 W 13 17 7 9 - - 0.0
31/11:00pm 9.2 5.3 3.4 67 2.5 W 13 15 7 8 - - 0.0
31/10:30pm 9.6 6.0 3.1 64 2.8 WNW 11 13 6 7 - - 0.0
31/10:00pm 9.2 6.9 2.5 63 2.8 SSE 4 9 2 5 - - 0.0
31/09:30pm 10.2 6.3 3.5 63 2.9 WSW 13 15 7 8 - - 0.0
31/09:00pm 12.6 8.4 3.8 55 4.0 W 15 20 8 11 - - 0.0
31/08:30pm 12.4 8.9 3.4 54 4.0 W 11 15 6 8 - - 0.0
31/08:00pm 13.0 9.8 3.1 51 4.4 W 9 13 5 7 - - 0.0
31/07:30pm 13.8 10.6 3.0 48 4.8 W 9 15 5 8 - - 0.0
31/07:00pm 13.2 10.0 3.3 51 4.4 W 9 15 5 8 - - 0.0
31/06:30pm 14.8 11.6 3.0 45 5.3 WNW 9 13 5 7 - - 0.0
31/06:00pm 15.7 12.9 2.2 40 6.0 WNW 6 9 3 5 - - 0.0
31/05:30pm 17.8 14.6 3.3 38 6.8 W 9 13 5 7 - - 0.0
31/05:00pm 21.4 18.4 4.0 32 8.4 W 9 13 5 7 - - 0.0
31/04:30pm 23.0 18.8 1.9 25 9.9 W 13 19 7 10 - - 0.0
31/04:00pm 23.7 19.6 2.5 25 10.2 W 13 24 7 13 - - 0.0
31/03:30pm 24.2 20.6 2.9 25 10.3 W 11 17 6 9 - - 0.0
31/03:00pm 24.1 20.1 2.9 25 10.3 W 13 20 7 11 - - 0.0
31/02:30pm 24.0 19.4 3.9 27 9.9 W 17 28 9 15 - - 0.0
31/02:00pm 23.3 18.1 3.3 27 9.7 W 20 28 11 15 - - 0.0
31/01:30pm 23.4 19.0 4.9 30 9.3 W 17 26 9 14 - - 0.0
31/01:00pm 22.9 19.5 5.8 33 8.7 WSW 13 26 7 14 - - 0.0
31/12:30pm 22.2 18.5 6.4 36 8.1 WSW 15 24 8 13 - - 0.0
31/12:00pm 21.8 18.2 6.9 38 7.7 W 15 20 8 11 - - 0.0
31/11:30am 21.3 17.4 7.2 40 7.3 W 17 26 9 14 - - 0.0
31/11:00am 19.5 17.3 9.4 52 5.4 NE 11 19 6 10 - - 0.0
31/10:30am 18.2 17.0 10.3 60 4.2 NNE 7 11 4 6 - - 0.0
31/10:00am 17.0 15.5 10.4 65 3.5 NNE 9 13 5 7 - - 0.0
31/09:30am 14.8 13.6 9.6 71 2.7 WNW 6 9 3 5 - - 0.0
31/09:00am 12.3 10.4 9.1 81 1.6 W 9 11 5 6 - - 0.0
31/08:30am 10.2 7.3 8.1 87 1.0 W 13 17 7 9 - - 0.0
31/08:00am 7.9 5.4 6.4 90 0.7 W 9 13 5 7 - - 0.0
31/07:30am 6.1 3.4 5.4 95 0.3 WSW 9 13 5 7 - - 0.0
31/07:00am 3.8 1.5 2.9 94 0.4 W 4 11 2 6 - - 0.0
31/06:30am 3.1 1.0 1.8 91 0.5 SW 2 6 1 3 - - 0.0
31/06:00am 4.0 2.1 3.0 93 0.4 SW 2 7 1 4 - - 0.0
31/05:30am 4.6 2.5 3.7 94 0.4 W 4 7 2 4 - - 0.0
31/05:00am 4.8 1.8 4.1 95 0.3 W 9 15 5 8 - - 0.0
31/04:30am 5.1 2.7 4.1 93 0.4 W 6 7 3 4 - - 0.0
31/04:00am 6.0 3.6 5.1 94 0.4 SW 7 9 4 5 - - 0.0
31/03:30am 6.4 4.2 5.2 92 0.5 W 6 9 3 5 - - 0.0
31/03:00am 6.6 3.9 5.4 92 0.5 WSW 9 13 5 7 - - 0.0
31/02:30am 6.7 4.4 5.5 92 0.5 WSW 7 9 4 5 - - 0.0
31/02:00am 6.9 4.2 5.7 92 0.5 W 9 11 5 6 - - 0.0
31/01:30am 7.1 4.5 5.9 92 0.5 WSW 9 11 5 6 - - 0.0
31/01:00am 7.4 5.2 6.0 91 0.6 W 7 11 4 6 - - 0.0
31/12:30am 7.9 5.0 6.4 90 0.7 W 11 11 6 6 - - 0.0
31/12:00am 8.4 5.9 6.7 89 0.8 W 9 11 5 6 - - 0.0
 
Date/Time
EST
Temp
°C
App
Temp
°C
Dew
Point
Rel
Hum
%
Delta-T
°C
Wind Press
QNH
hPa
Press
MSL
hPa
Rain
since 9 am
mm
Dir
 
Spd
km/h
Gust
km/h
Spd
kts
Gust
kts
30/11:30pm 8.8 6.4 7.1 89 0.8 W 9 11 5 6 - - 0.0
30/11:00pm 9.0 6.6 7.1 88 0.9 W 9 11 5 6 - - 0.0
30/10:30pm 8.9 6.5 7.0 88 0.9 W 9 11 5 6 - - 0.0
30/10:00pm 8.7 6.6 6.5 86 1.0 WSW 7 11 4 6 - - 0.0
30/09:30pm 9.2 7.1 6.5 83 1.3 WSW 7 9 4 5 - - 0.0
30/09:00pm 8.9 6.8 6.7 86 1.0 WSW 7 9 4 5 - - 0.0
30/08:30pm 9.1 7.5 6.2 82 1.3 WSW 4 7 2 4 - - 0.0
30/08:00pm 10.0 9.2 6.7 80 1.6 CALM 0 0 0 0 - - 0.0
30/07:30pm 10.8 10.1 6.9 77 1.9 CALM 0 6 0 3 - - 0.0
30/07:00pm 11.9 11.1 6.4 69 2.6 CALM 0 0 0 0 - - 0.0
30/06:30pm 13.7 12.0 7.5 66 3.1 ENE 6 9 3 5 - - 0.0
30/06:00pm 15.3 13.4 9.0 66 3.2 ENE 9 11 5 6 - - 0.0
30/05:30pm 16.3 14.4 7.5 56 4.4 NE 7 9 4 5 - - 0.0
30/05:00pm 19.5 17.9 8.8 50 5.6 NE 7 9 4 5 - - 0.0
30/04:30pm 20.9 20.0 9.2 47 6.2 NE 4 9 2 5 - - 0.0
30/04:00pm 21.2 20.3 9.1 46 6.5 SE 4 7 2 4 - - 0.0
30/03:30pm 21.4 19.5 9.0 45 6.6 NNE 9 13 5 7 - - 0.0
30/03:00pm 21.0 18.5 8.3 44 6.7 NNE 11 15 6 8 - - 0.0
30/02:30pm 21.2 19.3 9.1 46 6.5 NE 9 15 5 8 - - 0.0
30/02:00pm 21.5 20.1 9.4 46 6.5 NE 7 11 4 6 - - 0.0
30/01:30pm 21.2 19.8 9.4 47 6.3 N 7 13 4 7 - - 0.0
30/01:00pm 20.5 18.4 9.7 50 5.8 N 11 17 6 9 - - 0.0
30/12:30pm 19.9 18.2 10.0 53 5.3 ENE 9 17 5 9 - - 0.0
30/12:00pm 18.9 16.8 9.7 55 4.9 NE 11 15 6 8 - - 0.0
30/11:30am 18.6 16.6 8.6 52 5.2 NE 9 15 5 8 - - 0.0
30/11:00am 17.5 15.6 7.5 52 5.1 N 7 11 4 6 - - 0.0
30/10:30am 17.1 15.4 7.7 54 4.8 N 6 11 3 6 - - 0.0
30/10:00am 15.8 14.4 7.3 57 4.2 WNW 4 7 2 4 - - 0.0
30/09:30am 13.8 12.4 7.1 64 3.3 W 4 9 2 5 - - 0.0
30/09:00am 11.6 9.4 6.3 70 2.5 W 7 11 4 6 - - 0.0
30/08:30am 9.4 6.7 5.4 76 1.8 W 9 13 5 7 - - 0.0
30/08:00am 7.4 4.5 4.5 82 1.3 W 9 13 5 7 - - 0.0
30/07:30am 5.5 2.8 3.7 88 0.8 W 7 11 4 6 - - 0.0
30/07:00am 4.2 1.0 2.9 91 0.5 W 9 11 5 6 - - 0.0
30/06:30am 3.8 0.5 2.3 90 0.6 WSW 9 13 5 7 - - 0.0
30/06:00am 4.0 1.2 2.2 88 0.7 W 6 11 3 6 - - 0.0
30/05:30am 4.4 0.8 2.9 90 0.6 W 11 13 6 7 - - 0.0
30/05:00am 4.1 1.2 2.6 90 0.6 W 7 11 4 6 - - 0.0
30/04:30am 3.8 0.5 2.2 89 0.6 W 9 11 5 6 - - 0.0
30/04:00am 3.9 0.9 1.9 87 0.8 WSW 7 11 4 6 - - 0.0
30/03:30am 4.6 1.0 2.8 88 0.7 WSW 11 13 6 7 - - 0.0
30/03:00am 4.8 1.6 2.8 87 0.8 W 9 15 5 8 - - 0.0
30/02:30am 4.8 1.2 2.8 87 0.8 W 11 15 6 8 - - 0.0
30/02:00am 5.1 1.1 3.0 86 0.9 W 13 17 7 9 - - 0.0
30/01:30am 5.4 1.9 3.3 86 0.9 WSW 11 15 6 8 - - 0.0
30/01:00am 5.3 1.3 3.0 85 1.0 W 13 17 7 9 - - 0.0
30/12:30am 5.6 1.7 3.4 86 0.9 W 13 17 7 9 - - 0.0
30/12:00am 5.6 2.4 2.8 82 1.2 W 9 13 5 7 - - 0.0
 
Date/Time
EST
Temp
°C
App
Temp
°C
Dew
Point
Rel
Hum
%
Delta-T
°C
Wind Press
QNH
hPa
Press
MSL
hPa
Rain
since 9 am
mm
Dir
 
Spd
km/h
Gust
km/h
Spd
kts
Gust
kts
29/11:30pm 5.7 2.5 3.0 83 1.1 W 9 11 5 6 - - 0.0
29/11:00pm 6.8 3.0 3.9 82 1.2 W 13 15 7 8 - - 0.0
29/10:30pm 6.8 3.4 3.8 81 1.3 WSW 11 15 6 8 - - 0.0
29/10:00pm 7.2 4.3 4.5 83 1.2 W 9 11 5 6 - - 0.0
29/09:30pm 6.3 3.3 4.0 85 1.0 WSW 9 11 5 6 - - 0.0
29/09:00pm 6.7 4.3 4.2 84 1.1 W 6 7 3 4 - - 0.0
29/08:30pm 6.7 3.9 3.0 77 1.6 WSW 7 9 4 5 - - 0.0
29/08:00pm 8.2 6.6 4.6 78 1.6 NE 2 7 1 4 - - 0.0
29/07:30pm 9.0 6.9 4.0 71 2.2 S 4 7 2 4 - - 0.0
29/07:00pm 9.2 7.9 4.0 70 2.3 CALM 0 7 0 4 - - 0.0
29/06:30pm 10.7 8.3 4.2 64 2.9 N 6 7 3 4 - - 0.0
29/06:00pm 12.8 10.5 5.0 59 3.6 NE 6 7 3 4 - - 0.0
29/05:30pm 15.3 13.1 6.1 54 4.5 N 7 7 4 4 - - 0.0
29/05:00pm 17.2 14.9 5.8 47 5.6 N 7 9 4 5 - - 0.0
29/04:30pm 18.6 16.1 6.4 45 6.1 N 9 13 5 7 - - 0.0
29/04:00pm 20.0 17.6 4.5 36 7.5 NNE 6 11 3 6 - - 0.0
29/03:30pm 20.4 17.8 4.4 35 7.8 NE 7 13 4 7 - - 0.0
29/03:00pm 20.4 17.5 4.4 35 7.8 NNW 9 15 5 8 - - 0.0
29/02:30pm 20.2 16.4 3.9 34 7.8 N 13 20 7 11 - - 0.0
29/02:00pm 20.6 18.1 4.6 35 7.8 NNW 7 15 4 8 - - 0.0
29/01:30pm 19.9 17.2 3.6 34 7.8 NNE 7 13 4 7 - - 0.0
29/01:00pm 19.8 17.1 3.5 34 7.7 ENE 7 22 4 12 - - 0.0
29/12:30pm 18.9 16.0 2.7 34 7.5 E 7 13 4 7 - - 0.0
29/12:00pm 19.0 16.2 3.2 35 7.4 WSW 7 11 4 6 - - 0.0
29/11:30am 18.0 15.4 3.1 37 6.9 SSE 6 11 3 6 - - 0.0
29/11:00am 17.2 14.2 4.2 42 6.1 S 9 17 5 9 - - 0.0
29/10:30am 16.3 13.9 4.4 45 5.6 WSW 6 9 3 5 - - 0.0
29/10:00am 14.4 11.5 4.4 51 4.6 W 9 13 5 7 - - 0.0
29/09:30am 12.5 10.0 5.0 60 3.5 W 7 11 4 6 - - 0.0
29/09:00am 10.5 7.3 4.9 68 2.5 W 11 15 6 8 - - 0.0
29/08:30am 8.1 4.7 3.8 74 1.9 W 11 17 6 9 - - 0.0
29/08:00am 6.2 3.1 3.5 83 1.1 WSW 9 13 5 7 - - 0.0
29/07:30am 4.7 1.4 2.4 85 0.9 WSW 9 11 5 6 - - 0.0
29/07:00am 3.7 -0.9 1.7 87 0.8 W 15 19 8 10 - - 0.0
29/06:30am 3.2 -0.7 1.4 88 0.7 W 11 15 6 8 - - 0.0
29/06:00am 3.5 -0.7 1.7 88 0.7 WSW 13 17 7 9 - - 0.0
29/05:30am 3.7 -0.5 1.9 88 0.7 WSW 13 17 7 9 - - 0.0
29/05:00am 3.6 -0.5 2.0 89 0.6 W 13 17 7 9 - - 0.0
29/04:30am 3.7 -0.4 2.1 89 0.6 W 13 15 7 8 - - 0.0
29/04:00am 3.9 -0.2 2.3 89 0.6 W 13 15 7 8 - - 0.0
29/03:30am 4.2 0.1 2.2 87 0.8 W 13 15 7 8 - - 0.0

Other Formats:

Comma delimited format used in spreadsheet applications
http://www.bom.gov.au/fwo/IDQ60801/IDQ60801.94562.axf

JavaScript Object Notation format (JSON) in row-major order
http://www.bom.gov.au/fwo/IDQ60801/IDQ60801.94562.json